Terminal Aerodrome Forecast
Issued by NWS

Home | Current Version | Previous Version | Text Only | Print | Product List | Glossary On
Versions: 1 2 3 4 5 6 7 8 9 10 11 12 13 14 15 16 17
000
FTAK31 PANC 211133
TAFAEN
TAF
PAEN 211133Z 2112/2212 04005KT P6SM SKC
     FM220000 01008KT P6SM -SN SCT030 OVC045
     FM220500 01010KT P6SM SCT045 BKN100=

USA.gov is the U.S. government's official web portal to all federal, state and local government web resources and services.